sensor_id;sensor_type;location;lat;lon;timestamp;pressure;altitude;pressure_sealevel;temperature;humidity
8398;BME280;4236;54.504;9.588;2022-07-23T00:01:07;101697.81;;;16.03;82.97
8398;BME280;4236;54.504;9.588;2022-07-23T00:03:35;101697.00;;;16.02;83.34
8398;BME280;4236;54.504;9.588;2022-07-23T00:06:02;101699.69;;;16.02;83.35
8398;BME280;4236;54.504;9.588;2022-07-23T00:08:36;101698.84;;;16.02;83.20
8398;BME280;4236;54.504;9.588;2022-07-23T00:11:04;101705.25;;;16.01;82.77
8398;BME280;4236;54.504;9.588;2022-07-23T00:13:32;101697.00;;;16.02;82.88
8398;BME280;4236;54.504;9.588;2022-07-23T00:16:00;101698.44;;;15.98;82.62
8398;BME280;4236;54.504;9.588;2022-07-23T00:18:27;101702.38;;;16.02;83.21
8398;BME280;4236;54.504;9.588;2022-07-23T00:20:55;101704.22;;;16.02;83.17
8398;BME280;4236;54.504;9.588;2022-07-23T00:23:23;101704.03;;;16.03;82.92
8398;BME280;4236;54.504;9.588;2022-07-23T00:25:53;101703.81;;;16.05;82.71
8398;BME280;4236;54.504;9.588;2022-07-23T00:28:20;101697.59;;;16.04;82.49
8398;BME280;4236;54.504;9.588;2022-07-23T00:30:48;101692.63;;;16.01;82.44
8398;BME280;4236;54.504;9.588;2022-07-23T00:33:16;101677.75;;;15.99;82.40
8398;BME280;4236;54.504;9.588;2022-07-23T00:35:44;101691.41;;;15.97;82.60
8398;BME280;4236;54.504;9.588;2022-07-23T00:38:11;101692.44;;;15.96;82.71
8398;BME280;4236;54.504;9.588;2022-07-23T00:40:39;101694.31;;;15.96;82.80
8398;BME280;4236;54.504;9.588;2022-07-23T00:43:09;101684.56;;;15.95;82.95
8398;BME280;4236;54.504;9.588;2022-07-23T00:45:36;101684.78;;;15.93;82.92
8398;BME280;4236;54.504;9.588;2022-07-23T00:48:04;101682.72;;;15.89;82.86
8398;BME280;4236;54.504;9.588;2022-07-23T00:50:32;101681.69;;;15.90;83.58
8398;BME280;4236;54.504;9.588;2022-07-23T00:53:00;101682.31;;;15.85;83.32
8398;BME280;4236;54.504;9.588;2022-07-23T00:55:27;101685.00;;;15.85;83.37
8398;BME280;4236;54.504;9.588;2022-07-23T00:57:55;101679.63;;;15.85;83.43
8398;BME280;4236;54.504;9.588;2022-07-23T01:00:25;101690.41;;;15.85;83.46
8398;BME280;4236;54.504;9.588;2022-07-23T01:02:53;101684.19;;;15.85;83.41
8398;BME280;4236;54.504;9.588;2022-07-23T01:05:21;101694.72;;;15.86;83.29
8398;BME280;4236;54.504;9.588;2022-07-23T01:07:49;101684.78;;;15.87;83.37
8398;BME280;4236;54.504;9.588;2022-07-23T01:10:22;101686.88;;;15.85;83.17
8398;BME280;4236;54.504;9.588;2022-07-23T01:12:59;101685.63;;;15.87;83.40
8398;BME280;4236;54.504;9.588;2022-07-23T01:15:29;101689.34;;;15.86;83.36
8398;BME280;4236;54.504;9.588;2022-07-23T01:17:57;101684.59;;;15.88;83.62
8398;BME280;4236;54.504;9.588;2022-07-23T01:20:25;101687.06;;;15.90;83.96
8398;BME280;4236;54.504;9.588;2022-07-23T01:22:54;101687.47;;;15.87;84.05
8398;BME280;4236;54.504;9.588;2022-07-23T01:25:23;101687.47;;;15.87;84.49
8398;BME280;4236;54.504;9.588;2022-07-23T01:27:51;101682.09;;;15.87;84.89
8398;BME280;4236;54.504;9.588;2022-07-23T01:30:19;101692.03;;;15.86;84.61
8398;BME280;4236;54.504;9.588;2022-07-23T01:32:47;101676.53;;;15.82;84.80
8398;BME280;4236;54.504;9.588;2022-07-23T01:35:14;101673.84;;;15.82;84.90
8398;BME280;4236;54.504;9.588;2022-07-23T01:37:42;101679.22;;;15.82;85.29
8398;BME280;4236;54.504;9.588;2022-07-23T01:40:11;101677.56;;;15.81;85.47
8398;BME280;4236;54.504;9.588;2022-07-23T01:42:39;101662.47;;;15.80;85.51
8398;BME280;4236;54.504;9.588;2022-07-23T01:45:08;101665.59;;;15.77;85.99
8398;BME280;4236;54.504;9.588;2022-07-23T01:47:36;101675.09;;;15.79;86.23
8398;BME280;4236;54.504;9.588;2022-07-23T01:50:04;101669.28;;;15.76;86.35
8398;BME280;4236;54.504;9.588;2022-07-23T01:52:31;101664.75;;;15.76;86.73
8398;BME280;4236;54.504;9.588;2022-07-23T01:54:59;101660.63;;;15.74;86.89
8398;BME280;4236;54.504;9.588;2022-07-23T01:57:28;101662.66;;;15.72;86.95
8398;BME280;4236;54.504;9.588;2022-07-23T01:59:56;101659.38;;;15.70;87.34
8398;BME280;4236;54.504;9.588;2022-07-23T02:02:23;101664.53;;;15.71;87.40
8398;BME280;4236;54.504;9.588;2022-07-23T02:04:51;101659.56;;;15.68;87.29
8398;BME280;4236;54.504;9.588;2022-07-23T02:07:19;101662.06;;;15.70;87.64
8398;BME280;4236;54.504;9.588;2022-07-23T02:09:46;101652.13;;;15.70;87.64
8398;BME280;4236;54.504;9.588;2022-07-23T02:12:14;101654.41;;;15.67;87.53
8398;BME280;4236;54.504;9.588;2022-07-23T02:14:43;101652.53;;;15.67;87.88
8398;BME280;4236;54.504;9.588;2022-07-23T02:17:11;101654.81;;;15.70;88.05
8398;BME280;4236;54.504;9.588;2022-07-23T02:19:38;101653.16;;;15.69;87.96
8398;BME280;4236;54.504;9.588;2022-07-23T02:22:06;101650.47;;;15.69;87.91
8398;BME280;4236;54.504;9.588;2022-07-23T02:24:33;101653.16;;;15.69;87.62
8398;BME280;4236;54.504;9.588;2022-07-23T02:27:01;101657.94;;;15.67;87.36
8398;BME280;4236;54.504;9.588;2022-07-23T02:29:29;101658.94;;;15.66;87.33
8398;BME280;4236;54.504;9.588;2022-07-23T02:31:57;101645.72;;;15.65;87.30
8398;BME280;4236;54.504;9.588;2022-07-23T02:34:26;101648.19;;;15.66;87.23
8398;BME280;4236;54.504;9.588;2022-07-23T02:36:53;101657.28;;;15.65;87.44
8398;BME280;4236;54.504;9.588;2022-07-23T02:39:21;101652.31;;;15.62;87.13
8398;BME280;4236;54.504;9.588;2022-07-23T02:41:48;101658.53;;;15.63;87.51
8398;BME280;4236;54.504;9.588;2022-07-23T02:44:16;101650.88;;;15.60;88.14
8398;BME280;4236;54.504;9.588;2022-07-23T02:46:43;101649.03;;;15.60;88.23
8398;BME280;4236;54.504;9.588;2022-07-23T02:49:12;101651.72;;;15.60;88.09
8398;BME280;4236;54.504;9.588;2022-07-23T02:51:40;101655.66;;;15.58;88.31
8398;BME280;4236;54.504;9.588;2022-07-23T02:54:08;101650.88;;;15.53;88.38
8398;BME280;4236;54.504;9.588;2022-07-23T02:56:36;101645.94;;;15.50;89.15
8398;BME280;4236;54.504;9.588;2022-07-23T02:59:03;101645.09;;;15.49;88.92
8398;BME280;4236;54.504;9.588;2022-07-23T03:01:32;101640.34;;;15.52;89.56
8398;BME280;4236;54.504;9.588;2022-07-23T03:03:59;101640.75;;;15.48;89.52
8398;BME280;4236;54.504;9.588;2022-07-23T03:06:29;101644.88;;;15.51;89.61
8398;BME280;4236;54.504;9.588;2022-07-23T03:08:56;101644.88;;;15.51;89.67
8398;BME280;4236;54.504;9.588;2022-07-23T03:11:24;101651.09;;;15.52;89.49
8398;BME280;4236;54.504;9.588;2022-07-23T03:13:53;101622.53;;;15.50;89.24
8398;BME280;4236;54.504;9.588;2022-07-23T03:16:20;101618.00;;;15.51;89.24
8398;BME280;4236;54.504;9.588;2022-07-23T03:18:48;101634.13;;;15.51;89.20
8398;BME280;4236;54.504;9.588;2022-07-23T03:21:16;101629.81;;;15.50;88.88
8398;BME280;4236;54.504;9.588;2022-07-23T03:23:45;101627.53;;;15.47;88.67
8398;BME280;4236;54.504;9.588;2022-07-23T03:26:12;101628.53;;;15.46;88.64
8398;BME280;4236;54.504;9.588;2022-07-23T03:28:40;101631.03;;;15.47;88.90
8398;BME280;4236;54.504;9.588;2022-07-23T03:31:08;101635.59;;;15.47;88.88
8398;BME280;4236;54.504;9.588;2022-07-23T03:33:36;101638.91;;;15.49;89.00
8398;BME280;4236;54.504;9.588;2022-07-23T03:36:04;101638.28;;;15.47;88.53
8398;BME280;4236;54.504;9.588;2022-07-23T03:38:35;101635.19;;;15.50;88.94
8398;BME280;4236;54.504;9.588;2022-07-23T03:41:04;101636.41;;;15.47;89.15
8398;BME280;4236;54.504;9.588;2022-07-23T03:43:33;101638.28;;;15.47;89.29
8398;BME280;4236;54.504;9.588;2022-07-23T03:46:00;101632.25;;;15.45;89.22
8398;BME280;4236;54.504;9.588;2022-07-23T03:48:28;101634.94;;;15.45;89.17
8398;BME280;4236;54.504;9.588;2022-07-23T03:50:56;101638.66;;;15.44;89.57
8398;BME280;4236;54.504;9.588;2022-07-23T03:53:23;101631.63;;;15.36;89.39
8398;BME280;4236;54.504;9.588;2022-07-23T03:55:51;101636.56;;;15.33;90.12
8398;BME280;4236;54.504;9.588;2022-07-23T03:58:20;101636.81;;;15.31;90.52
8398;BME280;4236;54.504;9.588;2022-07-23T04:00:47;101632.44;;;15.30;90.39
8398;BME280;4236;54.504;9.588;2022-07-23T04:03:15;101633.06;;;15.32;90.97
8398;BME280;4236;54.504;9.588;2022-07-23T04:05:43;101633.28;;;15.31;90.57
8398;BME280;4236;54.504;9.588;2022-07-23T04:08:11;101626.03;;;15.25;90.70
8398;BME280;4236;54.504;9.588;2022-07-23T04:10:38;101627.47;;;15.21;91.97
8398;BME280;4236;54.504;9.588;2022-07-23T04:13:06;101623.75;;;15.15;92.18
8398;BME280;4236;54.504;9.588;2022-07-23T04:15:35;101618.78;;;15.12;92.66
8398;BME280;4236;54.504;9.588;2022-07-23T04:18:04;101623.75;;;15.02;91.78
8398;BME280;4236;54.504;9.588;2022-07-23T04:20:31;101627.66;;;15.06;92.15
8398;BME280;4236;54.504;9.588;2022-07-23T04:23:06;101624.59;;;15.16;92.30
8398;BME280;4236;54.504;9.588;2022-07-23T04:25:33;101620.88;;;15.17;92.40
8398;BME280;4236;54.504;9.588;2022-07-23T04:28:01;101626.22;;;15.23;92.81
8398;BME280;4236;54.504;9.588;2022-07-23T04:30:28;101618.38;;;15.22;93.12
8398;BME280;4236;54.504;9.588;2022-07-23T04:32:57;101613.84;;;15.22;94.00
8398;BME280;4236;54.504;9.588;2022-07-23T04:35:25;101613.44;;;15.25;93.73
8398;BME280;4236;54.504;9.588;2022-07-23T04:37:53;101613.44;;;15.32;93.49
8398;BME280;4236;54.504;9.588;2022-07-23T04:40:20;101619.00;;;15.37;93.83
8398;BME280;4236;54.504;9.588;2022-07-23T04:42:48;101615.09;;;15.46;93.41
8398;BME280;4236;54.504;9.588;2022-07-23T04:45:16;101610.56;;;15.53;92.40
8398;BME280;4236;54.504;9.588;2022-07-23T04:47:44;101614.91;;;15.67;92.10
8398;BME280;4236;54.504;9.588;2022-07-23T04:50:14;101621.09;;;15.74;91.26
8398;BME280;4236;54.504;9.588;2022-07-23T04:52:45;101612.59;;;15.84;90.07
8398;BME280;4236;54.504;9.588;2022-07-23T04:55:12;101618.16;;;15.89;89.17
8398;BME280;4236;54.504;9.588;2022-07-23T04:57:40;101613.19;;;15.99;89.00
8398;BME280;4236;54.504;9.588;2022-07-23T05:00:08;101618.97;;;16.09;88.20
8398;BME280;4236;54.504;9.588;2022-07-23T05:02:36;101617.47;;;16.20;87.42
8398;BME280;4236;54.504;9.588;2022-07-23T05:05:05;101617.22;;;16.28;86.50
8398;BME280;4236;54.504;9.588;2022-07-23T05:07:34;101619.47;;;16.31;85.68
8398;BME280;4236;54.504;9.588;2022-07-23T05:10:01;101623.00;;;16.38;85.62
8398;BME280;4236;54.504;9.588;2022-07-23T05:12:29;101624.22;;;16.42;84.70
8398;BME280;4236;54.504;9.588;2022-07-23T05:14:56;101621.94;;;16.45;84.25
8398;BME280;4236;54.504;9.588;2022-07-23T05:17:24;101625.84;;;16.49;83.24
8398;BME280;4236;54.504;9.588;2022-07-23T05:19:52;101630.19;;;16.50;82.78
8398;BME280;4236;54.504;9.588;2022-07-23T05:22:25;101636.19;;;16.52;82.00
8398;BME280;4236;54.504;9.588;2022-07-23T05:24:55;101640.53;;;16.53;81.65
8398;BME280;4236;54.504;9.588;2022-07-23T05:27:22;101637.44;;;16.56;81.89
8398;BME280;4236;54.504;9.588;2022-07-23T05:29:50;101632.72;;;16.39;81.43
8398;BME280;4236;54.504;9.588;2022-07-23T05:32:17;101631.63;;;16.53;83.38
8398;BME280;4236;54.504;9.588;2022-07-23T05:34:45;101643.41;;;16.65;83.35
8398;BME280;4236;54.504;9.588;2022-07-23T05:37:13;101632.03;;;16.63;81.85
8398;BME280;4236;54.504;9.588;2022-07-23T05:39:40;101637.34;;;16.76;81.82
8398;BME280;4236;54.504;9.588;2022-07-23T05:42:09;101630.97;;;16.64;79.33
8398;BME280;4236;54.504;9.588;2022-07-23T05:44:37;101622.72;;;16.59;79.52
8398;BME280;4236;54.504;9.588;2022-07-23T05:47:04;101639.31;;;16.56;79.51
8398;BME280;4236;54.504;9.588;2022-07-23T05:49:32;101642.41;;;16.59;79.00
8398;BME280;4236;54.504;9.588;2022-07-23T05:52:03;101633.91;;;16.63;78.26
8398;BME280;4236;54.504;9.588;2022-07-23T05:54:31;101632.56;;;16.78;79.54
8398;BME280;4236;54.504;9.588;2022-07-23T05:57:01;101631.44;;;16.92;78.37
8398;BME280;4236;54.504;9.588;2022-07-23T05:59:30;101629.91;;;17.03;78.23
8398;BME280;4236;54.504;9.588;2022-07-23T06:01:57;101631.59;;;17.04;77.05
8398;BME280;4236;54.504;9.588;2022-07-23T06:04:25;101632.41;;;17.04;75.88
8398;BME280;4236;54.504;9.588;2022-07-23T06:06:53;101630.00;;;16.96;77.13
8398;BME280;4236;54.504;9.588;2022-07-23T06:09:20;101629.38;;;16.88;75.87
8398;BME280;4236;54.504;9.588;2022-07-23T06:11:48;101634.78;;;16.88;75.78
8398;BME280;4236;54.504;9.588;2022-07-23T06:14:15;101628.59;;;16.87;76.72
8398;BME280;4236;54.504;9.588;2022-07-23T06:16:44;101633.34;;;16.85;78.34
8398;BME280;4236;54.504;9.588;2022-07-23T06:19:12;101640.53;;;16.98;79.04
8398;BME280;4236;54.504;9.588;2022-07-23T06:21:39;101632.47;;;16.91;78.58
8398;BME280;4236;54.504;9.588;2022-07-23T06:24:13;101642.97;;;17.06;79.13
8398;BME280;4236;54.504;9.588;2022-07-23T06:26:41;101643.78;;;17.06;77.65
8398;BME280;4236;54.504;9.588;2022-07-23T06:29:08;101647.88;;;17.15;78.84
8398;BME280;4236;54.504;9.588;2022-07-23T06:31:36;101650.69;;;17.27;78.77
8398;BME280;4236;54.504;9.588;2022-07-23T06:34:05;101657.16;;;17.26;76.75
8398;BME280;4236;54.504;9.588;2022-07-23T06:36:33;101649.31;;;17.18;75.80
8398;BME280;4236;54.504;9.588;2022-07-23T06:39:01;101647.19;;;16.95;75.86
8398;BME280;4236;54.504;9.588;2022-07-23T06:41:31;101646.72;;;17.05;78.12
8398;BME280;4236;54.504;9.588;2022-07-23T06:43:58;101650.66;;;17.02;77.93
8398;BME280;4236;54.504;9.588;2022-07-23T06:46:26;101651.88;;;17.06;77.64
8398;BME280;4236;54.504;9.588;2022-07-23T06:48:53;101646.66;;;17.11;77.70
8398;BME280;4236;54.504;9.588;2022-07-23T06:51:23;101637.97;;;17.09;77.43
8398;BME280;4236;54.504;9.588;2022-07-23T06:53:51;101643.16;;;17.11;76.89
8398;BME280;4236;54.504;9.588;2022-07-23T06:56:18;101637.94;;;17.16;77.40
8398;BME280;4236;54.504;9.588;2022-07-23T06:58:46;101641.34;;;17.30;77.56
8398;BME280;4236;54.504;9.588;2022-07-23T07:01:14;101638.75;;;17.41;77.92
8398;BME280;4236;54.504;9.588;2022-07-23T07:03:41;101643.06;;;17.49;77.00
8398;BME280;4236;54.504;9.588;2022-07-23T07:06:09;101658.16;;;17.56;75.80
8398;BME280;4236;54.504;9.588;2022-07-23T07:08:39;101655.81;;;17.66;75.63
8398;BME280;4236;54.504;9.588;2022-07-23T07:11:06;101647.06;;;17.71;74.77
8398;BME280;4236;54.504;9.588;2022-07-23T07:13:35;101654.53;;;17.69;74.40
8398;BME280;4236;54.504;9.588;2022-07-23T07:16:03;101649.38;;;17.67;73.91
8398;BME280;4236;54.504;9.588;2022-07-23T07:18:30;101650.03;;;17.63;74.28
8398;BME280;4236;54.504;9.588;2022-07-23T07:20:58;101650.22;;;17.68;74.97
8398;BME280;4236;54.504;9.588;2022-07-23T07:23:26;101656.63;;;17.67;75.12
8398;BME280;4236;54.504;9.588;2022-07-23T07:25:55;101658.31;;;17.68;75.15
8398;BME280;4236;54.504;9.588;2022-07-23T07:28:22;101669.44;;;17.72;75.18
8398;BME280;4236;54.504;9.588;2022-07-23T07:30:50;101660.22;;;17.61;74.92
8398;BME280;4236;54.504;9.588;2022-07-23T07:33:18;101651.09;;;17.62;74.97
8398;BME280;4236;54.504;9.588;2022-07-23T07:35:47;101652.00;;;17.74;75.45
8398;BME280;4236;54.504;9.588;2022-07-23T07:38:15;101657.97;;;17.83;75.51
8398;BME280;4236;54.504;9.588;2022-07-23T07:40:43;101657.72;;;17.84;74.14
8398;BME280;4236;54.504;9.588;2022-07-23T07:43:12;101659.84;;;18.00;74.45
8398;BME280;4236;54.504;9.588;2022-07-23T07:45:39;101663.16;;;18.02;73.27
8398;BME280;4236;54.504;9.588;2022-07-23T07:48:07;101671.03;;;18.04;73.80
8398;BME280;4236;54.504;9.588;2022-07-23T07:50:34;101669.00;;;17.99;73.47
8398;BME280;4236;54.504;9.588;2022-07-23T07:53:03;101669.44;;;17.96;73.80
8398;BME280;4236;54.504;9.588;2022-07-23T07:55:31;101672.03;;;17.85;74.00
8398;BME280;4236;54.504;9.588;2022-07-23T07:57:58;101678.22;;;17.67;74.54
8398;BME280;4236;54.504;9.588;2022-07-23T08:00:29;101683.50;;;17.55;74.91
8398;BME280;4236;54.504;9.588;2022-07-23T08:02:58;101681.09;;;17.41;76.73
8398;BME280;4236;54.504;9.588;2022-07-23T08:05:27;101686.13;;;17.31;78.53
8398;BME280;4236;54.504;9.588;2022-07-23T08:07:57;101682.75;;;17.10;81.14
8398;BME280;4236;54.504;9.588;2022-07-23T08:10:26;101689.72;;;16.87;82.77
8398;BME280;4236;54.504;9.588;2022-07-23T08:12:55;101686.78;;;16.95;86.06
8398;BME280;4236;54.504;9.588;2022-07-23T08:15:24;101690.03;;;17.03;85.96
8398;BME280;4236;54.504;9.588;2022-07-23T08:17:54;101693.25;;;17.19;86.59
8398;BME280;4236;54.504;9.588;2022-07-23T08:20:24;101690.09;;;17.28;86.13
8398;BME280;4236;54.504;9.588;2022-07-23T08:22:56;101693.94;;;17.39;86.04
8398;BME280;4236;54.504;9.588;2022-07-23T08:25:25;101693.72;;;17.47;85.25
8398;BME280;4236;54.504;9.588;2022-07-23T08:27:54;101697.44;;;17.46;84.05
8398;BME280;4236;54.504;9.588;2022-07-23T08:30:22;101701.59;;;17.42;83.90
8398;BME280;4236;54.504;9.588;2022-07-23T08:32:54;101704.78;;;17.01;85.87
8398;BME280;4236;54.504;9.588;2022-07-23T08:35:25;101716.38;;;16.57;89.15
8398;BME280;4236;54.504;9.588;2022-07-23T08:37:53;101726.34;;;16.17;93.02
8398;BME280;4236;54.504;9.588;2022-07-23T08:40:21;101728.84;;;16.19;94.08
8398;BME280;4236;54.504;9.588;2022-07-23T08:42:50;101726.72;;;16.47;95.65
8398;BME280;4236;54.504;9.588;2022-07-23T08:45:20;101718.97;;;16.77;95.42
8398;BME280;4236;54.504;9.588;2022-07-23T08:47:49;101718.00;;;17.02;93.76
8398;BME280;4236;54.504;9.588;2022-07-23T08:50:20;101728.88;;;17.27;92.29
8398;BME280;4236;54.504;9.588;2022-07-23T08:52:50;101728.41;;;17.37;88.44
8398;BME280;4236;54.504;9.588;2022-07-23T08:55:20;101734.75;;;17.55;87.23
8398;BME280;4236;54.504;9.588;2022-07-23T08:57:49;101733.59;;;17.69;86.29
8398;BME280;4236;54.504;9.588;2022-07-23T09:00:20;101725.00;;;17.48;81.84
8398;BME280;4236;54.504;9.588;2022-07-23T09:02:48;101730.44;;;17.41;84.22
8398;BME280;4236;54.504;9.588;2022-07-23T09:05:18;101742.25;;;17.02;88.33
8398;BME280;4236;54.504;9.588;2022-07-23T09:08:07;101742.78;;;16.80;88.60
8398;BME280;4236;54.504;9.588;2022-07-23T09:10:46;101742.03;;;16.66;89.39
8398;BME280;4236;54.504;9.588;2022-07-23T09:13:24;101740.78;;;16.49;89.48
8398;BME280;4236;54.504;9.588;2022-07-23T09:15:53;101750.34;;;16.45;89.15
8398;BME280;4236;54.504;9.588;2022-07-23T09:18:28;101749.50;;;16.51;90.32
8398;BME280;4236;54.504;9.588;2022-07-23T09:21:06;101746.38;;;16.47;88.29
8398;BME280;4236;54.504;9.588;2022-07-23T09:23:40;101740.59;;;16.50;86.83
8398;BME280;4236;54.504;9.588;2022-07-23T09:26:18;101743.47;;;16.49;87.30
8398;BME280;4236;54.504;9.588;2022-07-23T09:28:50;101744.13;;;16.38;84.94
8398;BME280;4236;54.504;9.588;2022-07-23T09:31:18;101741.03;;;16.28;84.15
8398;BME280;4236;54.504;9.588;2022-07-23T09:33:46;101741.03;;;16.54;86.20
8398;BME280;4236;54.504;9.588;2022-07-23T09:36:13;101745.91;;;16.83;88.06
8398;BME280;4236;54.504;9.588;2022-07-23T09:38:50;101741.41;;;17.08;87.16
8398;BME280;4236;54.504;9.588;2022-07-23T09:41:18;101737.31;;;17.37;86.79
8398;BME280;4236;54.504;9.588;2022-07-23T09:43:45;101733.09;;;17.54;83.62
8398;BME280;4236;54.504;9.588;2022-07-23T09:46:20;101724.63;;;17.76;82.74
8398;BME280;4236;54.504;9.588;2022-07-23T09:48:49;101727.34;;;18.00;82.14
8398;BME280;4236;54.504;9.588;2022-07-23T09:51:19;101724.72;;;18.12;79.29
8398;BME280;4236;54.504;9.588;2022-07-23T09:53:52;101733.50;;;18.25;77.98
8398;BME280;4236;54.504;9.588;2022-07-23T09:56:20;101722.06;;;18.48;77.74
8398;BME280;4236;54.504;9.588;2022-07-23T09:58:53;101731.16;;;18.90;78.67
8398;BME280;4236;54.504;9.588;2022-07-23T10:01:29;101734.13;;;19.00;74.17
8398;BME280;4236;54.504;9.588;2022-07-23T10:03:58;101725.03;;;19.13;73.13
8398;BME280;4236;54.504;9.588;2022-07-23T10:06:27;101724.47;;;19.41;73.73
8398;BME280;4236;54.504;9.588;2022-07-23T10:08:58;101734.97;;;19.30;72.05
8398;BME280;4236;54.504;9.588;2022-07-23T10:11:27;101733.38;;;19.11;71.50
8398;BME280;4236;54.504;9.588;2022-07-23T10:13:56;101734.41;;;18.81;71.90
8398;BME280;4236;54.504;9.588;2022-07-23T10:16:25;101739.84;;;18.13;75.35
8398;BME280;4236;54.504;9.588;2022-07-23T10:18:53;101754.19;;;17.26;80.82
8398;BME280;4236;54.504;9.588;2022-07-23T10:21:24;101760.63;;;16.74;84.39
8398;BME280;4236;54.504;9.588;2022-07-23T10:24:07;101762.16;;;16.57;86.49
8398;BME280;4236;54.504;9.588;2022-07-23T10:26:42;101765.25;;;16.47;87.75
8398;BME280;4236;54.504;9.588;2022-07-23T10:29:23;101771.66;;;16.46;86.96
8398;BME280;4236;54.504;9.588;2022-07-23T10:32:00;101765.22;;;16.67;87.43
8398;BME280;4236;54.504;9.588;2022-07-23T10:34:38;101767.63;;;16.88;86.39
8398;BME280;4236;54.504;9.588;2022-07-23T10:37:14;101763.91;;;16.83;83.25
8398;BME280;4236;54.504;9.588;2022-07-23T10:40:08;101765.44;;;17.17;81.88
8398;BME280;4236;54.504;9.588;2022-07-23T10:42:36;101775.78;;;17.26;79.78
8398;BME280;4236;54.504;9.588;2022-07-23T10:45:23;101770.22;;;17.59;80.77
8398;BME280;4236;54.504;9.588;2022-07-23T10:47:51;101766.19;;;17.93;77.16
8398;BME280;4236;54.504;9.588;2022-07-23T10:50:22;101761.97;;;18.03;75.26
8398;BME280;4236;54.504;9.588;2022-07-23T10:53:17;101766.88;;;18.56;73.61
8398;BME280;4236;54.504;9.588;2022-07-23T10:55:49;101766.81;;;18.62;69.68
8398;BME280;4236;54.504;9.588;2022-07-23T10:58:22;101769.16;;;18.77;70.91
8398;BME280;4236;54.504;9.588;2022-07-23T11:00:50;101766.88;;;18.74;69.76
8398;BME280;4236;54.504;9.588;2022-07-23T11:03:32;101767.06;;;19.09;68.36
8398;BME280;4236;54.504;9.588;2022-07-23T11:06:05;101767.78;;;19.34;69.56
8398;BME280;4236;54.504;9.588;2022-07-23T11:08:32;101762.72;;;19.56;68.72
8398;BME280;4236;54.504;9.588;2022-07-23T11:11:11;101771.13;;;19.77;67.89
8398;BME280;4236;54.504;9.588;2022-07-23T11:13:48;101774.06;;;19.76;66.18
8398;BME280;4236;54.504;9.588;2022-07-23T11:16:18;101774.28;;;19.74;66.38
8398;BME280;4236;54.504;9.588;2022-07-23T11:19:04;101767.53;;;19.54;64.80
8398;BME280;4236;54.504;9.588;2022-07-23T11:21:50;101779.50;;;19.46;67.12
8398;BME280;4236;54.504;9.588;2022-07-23T11:24:23;101772.69;;;19.25;67.49
8398;BME280;4236;54.504;9.588;2022-07-23T11:27:10;101776.69;;;19.23;67.72
8398;BME280;4236;54.504;9.588;2022-07-23T11:29:44;101772.09;;;19.23;68.71
8398;BME280;4236;54.504;9.588;2022-07-23T11:32:38;101778.69;;;19.27;67.20
8398;BME280;4236;54.504;9.588;2022-07-23T11:35:20;101765.47;;;19.38;67.71
8398;BME280;4236;54.504;9.588;2022-07-23T11:37:48;101765.31;;;19.62;68.27
8398;BME280;4236;54.504;9.588;2022-07-23T11:40:20;101772.31;;;19.93;66.86
8398;BME280;4236;54.504;9.588;2022-07-23T11:42:54;101771.78;;;20.26;66.85
8398;BME280;4236;54.504;9.588;2022-07-23T11:45:23;101774.25;;;20.51;64.71
8398;BME280;4236;54.504;9.588;2022-07-23T11:47:51;101769.53;;;20.46;63.43
8398;BME280;4236;54.504;9.588;2022-07-23T11:50:19;101777.66;;;20.69;64.13
8398;BME280;4236;54.504;9.588;2022-07-23T11:52:46;101773.03;;;20.81;63.81
8398;BME280;4236;54.504;9.588;2022-07-23T11:55:14;101786.38;;;20.71;63.47
8398;BME280;4236;54.504;9.588;2022-07-23T11:57:43;101779.22;;;20.54;63.24
8398;BME280;4236;54.504;9.588;2022-07-23T12:00:14;101778.84;;;20.62;63.52
8398;BME280;4236;54.504;9.588;2022-07-23T12:02:46;101772.31;;;20.86;63.51
8398;BME280;4236;54.504;9.588;2022-07-23T12:05:14;101782.91;;;21.11;63.56
8398;BME280;4236;54.504;9.588;2022-07-23T12:07:43;101786.41;;;21.23;61.51
8398;BME280;4236;54.504;9.588;2022-07-23T12:10:14;101784.31;;;21.13;62.38
8398;BME280;4236;54.504;9.588;2022-07-23T12:12:44;101784.66;;;21.05;61.43
8398;BME280;4236;54.504;9.588;2022-07-23T12:15:14;101791.75;;;20.94;61.89
8398;BME280;4236;54.504;9.588;2022-07-23T12:17:44;101791.38;;;21.03;61.90
8398;BME280;4236;54.504;9.588;2022-07-23T12:20:20;101786.94;;;20.85;59.78
8398;BME280;4236;54.504;9.588;2022-07-23T12:22:49;101776.69;;;20.06;59.95
8398;BME280;4236;54.504;9.588;2022-07-23T12:25:19;101784.22;;;19.92;64.18
8398;BME280;4236;54.504;9.588;2022-07-23T12:28:02;101779.06;;;20.14;62.34
8398;BME280;4236;54.504;9.588;2022-07-23T12:30:33;101774.03;;;20.40;61.69
8398;BME280;4236;54.504;9.588;2022-07-23T12:33:02;101780.06;;;19.78;60.74
8398;BME280;4236;54.504;9.588;2022-07-23T12:35:33;101783.91;;;20.12;63.12
8398;BME280;4236;54.504;9.588;2022-07-23T12:38:04;101786.72;;;20.05;61.59
8398;BME280;4236;54.504;9.588;2022-07-23T12:40:34;101789.53;;;20.10;60.45
8398;BME280;4236;54.504;9.588;2022-07-23T12:43:05;101787.25;;;19.84;62.67
8398;BME280;4236;54.504;9.588;2022-07-23T12:45:45;101793.47;;;19.73;64.04
8398;BME280;4236;54.504;9.588;2022-07-23T12:48:24;101799.88;;;19.49;63.05
8398;BME280;4236;54.504;9.588;2022-07-23T12:50:57;101804.03;;;19.15;65.99
8398;BME280;4236;54.504;9.588;2022-07-23T12:53:27;101801.25;;;18.67;68.18
8398;BME280;4236;54.504;9.588;2022-07-23T12:56:04;101805.75;;;18.30;70.24
8398;BME280;4236;54.504;9.588;2022-07-23T12:58:55;101810.28;;;18.11;72.54
8398;BME280;4236;54.504;9.588;2022-07-23T13:01:27;101808.19;;;17.89;72.97
8398;BME280;4236;54.504;9.588;2022-07-23T13:04:01;101824.16;;;18.15;72.67
8398;BME280;4236;54.504;9.588;2022-07-23T13:06:38;101817.00;;;18.52;69.58
8398;BME280;4236;54.504;9.588;2022-07-23T13:09:07;101814.53;;;18.50;69.73
8398;BME280;4236;54.504;9.588;2022-07-23T13:11:35;101807.19;;;18.57;68.44
8398;BME280;4236;54.504;9.588;2022-07-23T13:14:05;101811.53;;;18.58;70.37
8398;BME280;4236;54.504;9.588;2022-07-23T13:16:54;101823.56;;;18.62;72.29
8398;BME280;4236;54.504;9.588;2022-07-23T13:19:25;101822.13;;;18.60;71.04
8398;BME280;4236;54.504;9.588;2022-07-23T13:21:53;101831.50;;;18.33;73.15
8398;BME280;4236;54.504;9.588;2022-07-23T13:24:21;101829.69;;;18.27;72.31